Stanton, Michigan
Current Conditions -  °F | °C
As of 11:53 PM on Monday 20 Oct 2014 (Local Time) from KAMN Reporting Station
Overcast Overcast  
Wind Chill:   Ceiling: 5000
Heat Index:   Visibility: 10mi
Dew Point:   Wind: 7mph
Humidity: 82%   Direction: 320°NW
Pressure: 29.92"   Gusts: NA
Location:  43.29°N, 85.08°W
Report Text: KAMN 210353Z AUTO 32006KT 10SM SCT016 OVC050 09/06 A2992 RMK AO2 T00910061
Loading
Personal Weather Stations






























Interactive Weather Map
Tropical Storm Tracking
New forecast layout! Learn more

10-Day Weather Forecast

Advertisements
Track Severe Weather on mobile